sensor_id;sensor_type;location;lat;lon;timestamp;temperature;humidity
20833;DHT22;56075;51.264;7.150;2023-03-29T02:25:41;6.10;99.90
20833;DHT22;56075;51.264;7.150;2023-03-29T02:38:32;6.10;99.90
20833;DHT22;56075;51.264;7.150;2023-03-29T02:43:36;6.00;99.90
20833;DHT22;56075;51.264;7.150;2023-03-29T03:09:19;6.20;99.90
20833;DHT22;56075;51.264;7.150;2023-03-29T04:10:17;6.60;99.90
20833;DHT22;56075;51.264;7.150;2023-03-29T04:12:58;6.50;99.90
20833;DHT22;56075;51.264;7.150;2023-03-29T04:15:33;6.70;99.90
20833;DHT22;56075;51.264;7.150;2023-03-29T04:18:11;6.70;99.90
20833;DHT22;56075;51.264;7.150;2023-03-29T04:20:49;6.70;99.90
20833;DHT22;56075;51.264;7.150;2023-03-29T04:23:23;6.70;99.90
20833;DHT22;56075;51.264;7.150;2023-03-29T04:31:40;6.70;99.90
20833;DHT22;56075;51.264;7.150;2023-03-29T06:01:00;6.30;99.90
20833;DHT22;56075;51.264;7.150;2023-03-29T06:09:03;6.40;99.90
20833;DHT22;56075;51.264;7.150;2023-03-29T06:11:51;6.60;99.90
20833;DHT22;56075;51.264;7.150;2023-03-29T06:20:05;6.60;99.90
20833;DHT22;56075;51.264;7.150;2023-03-29T06:27:52;6.70;99.90
20833;DHT22;56075;51.264;7.150;2023-03-29T06:30:24;7.10;99.90
20833;DHT22;56075;51.264;7.150;2023-03-29T06:32:58;6.90;99.90
20833;DHT22;56075;51.264;7.150;2023-03-29T06:38:28;6.90;99.90
20833;DHT22;56075;51.264;7.150;2023-03-29T06:41:19;7.10;99.90
20833;DHT22;56075;51.264;7.150;2023-03-29T06:44:14;7.10;99.90
20833;DHT22;56075;51.264;7.150;2023-03-29T06:46:58;7.00;99.90
20833;DHT22;56075;51.264;7.150;2023-03-29T06:49:31;7.00;99.90
20833;DHT22;56075;51.264;7.150;2023-03-29T07:05:43;7.30;99.90
20833;DHT22;56075;51.264;7.150;2023-03-29T07:10:58;7.60;99.90
20833;DHT22;56075;51.264;7.150;2023-03-29T07:22:08;7.80;99.90
20833;DHT22;56075;51.264;7.150;2023-03-29T07:30:02;8.20;99.90
20833;DHT22;56075;51.264;7.150;2023-03-29T07:32:37;7.80;99.90
20833;DHT22;56075;51.264;7.150;2023-03-29T07:35:26;8.20;99.90
20833;DHT22;56075;51.264;7.150;2023-03-29T07:37:58;8.00;99.90
20833;DHT22;56075;51.264;7.150;2023-03-29T07:40:30;8.30;99.90
20833;DHT22;56075;51.264;7.150;2023-03-29T07:43:01;7.90;99.90
20833;DHT22;56075;51.264;7.150;2023-03-29T07:45:37;8.40;99.90
20833;DHT22;56075;51.264;7.150;2023-03-29T07:48:15;8.40;99.90
20833;DHT22;56075;51.264;7.150;2023-03-29T07:53:31;8.60;99.90
20833;DHT22;56075;51.264;7.150;2023-03-29T07:56:06;8.60;99.90
20833;DHT22;56075;51.264;7.150;2023-03-29T07:58:55;8.90;99.90
20833;DHT22;56075;51.264;7.150;2023-03-29T08:01:27;8.70;99.90
20833;DHT22;56075;51.264;7.150;2023-03-29T08:04:33;8.70;99.90
20833;DHT22;56075;51.264;7.150;2023-03-29T08:07:19;8.60;99.90
20833;DHT22;56075;51.264;7.150;2023-03-29T08:09:56;8.80;99.90
20833;DHT22;56075;51.264;7.150;2023-03-29T08:12:44;8.90;99.90
20833;DHT22;56075;51.264;7.150;2023-03-29T08:15:16;9.00;99.90
20833;DHT22;56075;51.264;7.150;2023-03-29T08:17:47;9.00;99.90
20833;DHT22;56075;51.264;7.150;2023-03-29T08:20:19;9.10;99.90
20833;DHT22;56075;51.264;7.150;2023-03-29T08:22:53;9.20;99.90
20833;DHT22;56075;51.264;7.150;2023-03-29T08:25:36;9.20;99.90
20833;DHT22;56075;51.264;7.150;2023-03-29T08:28:08;9.10;99.90
20833;DHT22;56075;51.264;7.150;2023-03-29T08:30:49;9.40;99.90
20833;DHT22;56075;51.264;7.150;2023-03-29T08:33:21;9.20;99.90
20833;DHT22;56075;51.264;7.150;2023-03-29T08:36:01;9.10;99.90
20833;DHT22;56075;51.264;7.150;2023-03-29T08:38:35;9.10;99.90
20833;DHT22;56075;51.264;7.150;2023-03-29T08:44:12;9.00;99.90
20833;DHT22;56075;51.264;7.150;2023-03-29T08:49:52;8.90;99.90
20833;DHT22;56075;51.264;7.150;2023-03-29T08:52:36;9.10;99.90
20833;DHT22;56075;51.264;7.150;2023-03-29T08:55:34;9.00;99.90
20833;DHT22;56075;51.264;7.150;2023-03-29T08:58:33;9.00;99.90
20833;DHT22;56075;51.264;7.150;2023-03-29T09:01:07;9.00;99.90
20833;DHT22;56075;51.264;7.150;2023-03-29T09:06:39;9.30;99.90
20833;DHT22;56075;51.264;7.150;2023-03-29T09:09:22;9.20;99.90
20833;DHT22;56075;51.264;7.150;2023-03-29T09:12:06;9.40;99.90
20833;DHT22;56075;51.264;7.150;2023-03-29T09:18:19;9.50;99.90
20833;DHT22;56075;51.264;7.150;2023-03-29T09:21:11;9.70;99.90
20833;DHT22;56075;51.264;7.150;2023-03-29T09:27:36;9.80;99.90
20833;DHT22;56075;51.264;7.150;2023-03-29T09:32:59;10.00;99.90
20833;DHT22;56075;51.264;7.150;2023-03-29T09:35:52;10.20;99.90
20833;DHT22;56075;51.264;7.150;2023-03-29T09:38:24;10.20;99.90
20833;DHT22;56075;51.264;7.150;2023-03-29T09:41:03;10.20;99.90
20833;DHT22;56075;51.264;7.150;2023-03-29T09:43:37;10.50;99.90
20833;DHT22;56075;51.264;7.150;2023-03-29T09:46:45;10.60;99.90
20833;DHT22;56075;51.264;7.150;2023-03-29T09:49:19;10.60;99.90
20833;DHT22;56075;51.264;7.150;2023-03-29T09:51:55;10.90;99.90
20833;DHT22;56075;51.264;7.150;2023-03-29T09:54:27;10.90;99.90
20833;DHT22;56075;51.264;7.150;2023-03-29T09:57:12;10.90;99.90
20833;DHT22;56075;51.264;7.150;2023-03-29T09:59:48;10.70;99.90
20833;DHT22;56075;51.264;7.150;2023-03-29T10:02:21;11.00;99.90
20833;DHT22;56075;51.264;7.150;2023-03-29T10:04:53;11.30;99.90
20833;DHT22;56075;51.264;7.150;2023-03-29T10:07:38;11.00;99.90
20833;DHT22;56075;51.264;7.150;2023-03-29T10:10:20;11.20;99.90
20833;DHT22;56075;51.264;7.150;2023-03-29T10:12:56;11.20;99.90
20833;DHT22;56075;51.264;7.150;2023-03-29T10:15:29;11.10;99.90
20833;DHT22;56075;51.264;7.150;2023-03-29T10:18:05;11.10;99.90
20833;DHT22;56075;51.264;7.150;2023-03-29T10:20:38;11.30;99.90
20833;DHT22;56075;51.264;7.150;2023-03-29T10:23:16;11.10;99.90
20833;DHT22;56075;51.264;7.150;2023-03-29T10:25:48;11.10;99.90
20833;DHT22;56075;51.264;7.150;2023-03-29T10:28:20;11.80;99.90
20833;DHT22;56075;51.264;7.150;2023-03-29T10:30:55;11.00;99.90
20833;DHT22;56075;51.264;7.150;2023-03-29T10:33:30;11.10;99.90
20833;DHT22;56075;51.264;7.150;2023-03-29T10:36:05;11.10;99.90
20833;DHT22;56075;51.264;7.150;2023-03-29T10:38:37;11.30;99.90
20833;DHT22;56075;51.264;7.150;2023-03-29T10:41:09;11.40;99.90
20833;DHT22;56075;51.264;7.150;2023-03-29T10:43:46;13.00;99.90
20833;DHT22;56075;51.264;7.150;2023-03-29T10:46:25;11.80;99.90
20833;DHT22;56075;51.264;7.150;2023-03-29T10:49:02;12.30;99.90
20833;DHT22;56075;51.264;7.150;2023-03-29T10:51:36;12.40;99.90
20833;DHT22;56075;51.264;7.150;2023-03-29T10:54:12;12.00;99.90
20833;DHT22;56075;51.264;7.150;2023-03-29T10:56:54;12.20;99.90
20833;DHT22;56075;51.264;7.150;2023-03-29T10:59:34;12.50;99.90
20833;DHT22;56075;51.264;7.150;2023-03-29T11:07:34;13.00;99.90
20833;DHT22;56075;51.264;7.150;2023-03-29T11:16:30;13.20;99.90
20833;DHT22;56075;51.264;7.150;2023-03-29T11:19:43;13.40;99.90
20833;DHT22;56075;51.264;7.150;2023-03-29T11:28:45;13.90;99.90
20833;DHT22;56075;51.264;7.150;2023-03-29T11:37:44;13.90;99.90
20833;DHT22;56075;51.264;7.150;2023-03-29T11:40:35;14.10;99.90
20833;DHT22;56075;51.264;7.150;2023-03-29T11:43:19;14.10;99.90
20833;DHT22;56075;51.264;7.150;2023-03-29T11:46:19;14.00;99.90
20833;DHT22;56075;51.264;7.150;2023-03-29T11:48:57;14.10;99.90
20833;DHT22;56075;51.264;7.150;2023-03-29T11:51:39;14.20;99.90
20833;DHT22;56075;51.264;7.150;2023-03-29T11:54:21;14.20;99.90
20833;DHT22;56075;51.264;7.150;2023-03-29T11:57:01;14.50;99.90
20833;DHT22;56075;51.264;7.150;2023-03-29T12:00:03;15.30;99.90
20833;DHT22;56075;51.264;7.150;2023-03-29T12:02:38;14.50;99.90
20833;DHT22;56075;51.264;7.150;2023-03-29T12:05:19;16.60;99.90
20833;DHT22;56075;51.264;7.150;2023-03-29T12:10:55;14.70;99.90
20833;DHT22;56075;51.264;7.150;2023-03-29T12:13:32;14.60;99.90
20833;DHT22;56075;51.264;7.150;2023-03-29T12:16:28;14.60;99.90
20833;DHT22;56075;51.264;7.150;2023-03-29T12:19:24;14.80;99.90
20833;DHT22;56075;51.264;7.150;2023-03-29T12:21:58;14.80;99.90
20833;DHT22;56075;51.264;7.150;2023-03-29T12:24:31;15.60;99.90
20833;DHT22;56075;51.264;7.150;2023-03-29T12:28:08;14.50;99.90
20833;DHT22;56075;51.264;7.150;2023-03-29T12:30:31;14.50;99.90
20833;DHT22;56075;51.264;7.150;2023-03-29T12:36:16;14.60;99.90
20833;DHT22;56075;51.264;7.150;2023-03-29T12:39:13;14.90;99.90
20833;DHT22;56075;51.264;7.150;2023-03-29T12:42:17;16.00;99.90
20833;DHT22;56075;51.264;7.150;2023-03-29T12:45:43;14.60;99.90
20833;DHT22;56075;51.264;7.150;2023-03-29T12:48:22;14.60;99.90
20833;DHT22;56075;51.264;7.150;2023-03-29T12:50:58;16.50;99.90
20833;DHT22;56075;51.264;7.150;2023-03-29T12:56:21;14.40;99.90
20833;DHT22;56075;51.264;7.150;2023-03-29T12:59:17;15.60;99.90
20833;DHT22;56075;51.264;7.150;2023-03-29T13:02:00;14.10;99.90
20833;DHT22;56075;51.264;7.150;2023-03-29T13:04:49;14.00;99.90
20833;DHT22;56075;51.264;7.150;2023-03-29T13:10:02;16.10;99.90
20833;DHT22;56075;51.264;7.150;2023-03-29T13:12:40;14.10;99.90
20833;DHT22;56075;51.264;7.150;2023-03-29T13:32:20;15.10;99.90
20833;DHT22;56075;51.264;7.150;2023-03-29T13:35:13;15.10;99.90
20833;DHT22;56075;51.264;7.150;2023-03-29T13:38:08;15.10;99.90
20833;DHT22;56075;51.264;7.150;2023-03-29T13:43:49;15.20;99.90
20833;DHT22;56075;51.264;7.150;2023-03-29T13:46:41;15.30;99.90
20833;DHT22;56075;51.264;7.150;2023-03-29T13:49:17;15.30;99.90
20833;DHT22;56075;51.264;7.150;2023-03-29T13:55:12;15.40;99.90
20833;DHT22;56075;51.264;7.150;2023-03-29T13:57:37;15.30;99.90
20833;DHT22;56075;51.264;7.150;2023-03-29T14:00:18;15.50;99.90
20833;DHT22;56075;51.264;7.150;2023-03-29T14:02:57;15.30;99.90
20833;DHT22;56075;51.264;7.150;2023-03-29T14:05:38;15.50;99.90
20833;DHT22;56075;51.264;7.150;2023-03-29T14:10:46;16.00;99.90
20833;DHT22;56075;51.264;7.150;2023-03-29T14:13:20;18.30;99.90
20833;DHT22;56075;51.264;7.150;2023-03-29T14:15:55;17.40;99.90
20833;DHT22;56075;51.264;7.150;2023-03-29T14:18:35;16.00;99.90
20833;DHT22;56075;51.264;7.150;2023-03-29T14:21:09;15.90;99.90
20833;DHT22;56075;51.264;7.150;2023-03-29T14:23:43;15.80;99.90
20833;DHT22;56075;51.264;7.150;2023-03-29T14:26:20;15.90;99.90
20833;DHT22;56075;51.264;7.150;2023-03-29T14:28:53;15.60;99.90
20833;DHT22;56075;51.264;7.150;2023-03-29T14:31:32;15.60;99.90
20833;DHT22;56075;51.264;7.150;2023-03-29T14:34:05;15.50;99.90
20833;DHT22;56075;51.264;7.150;2023-03-29T14:36:38;17.50;99.90
20833;DHT22;56075;51.264;7.150;2023-03-29T14:39:17;15.80;99.90
20833;DHT22;56075;51.264;7.150;2023-03-29T14:41:51;16.50;99.90
20833;DHT22;56075;51.264;7.150;2023-03-29T14:44:26;15.80;99.90
20833;DHT22;56075;51.264;7.150;2023-03-29T14:46:58;16.90;99.90
20833;DHT22;56075;51.264;7.150;2023-03-29T14:49:30;17.40;99.90
20833;DHT22;56075;51.264;7.150;2023-03-29T14:52:02;15.70;99.90
20833;DHT22;56075;51.264;7.150;2023-03-29T14:54:33;16.10;99.90
20833;DHT22;56075;51.264;7.150;2023-03-29T14:57:06;16.50;99.90
20833;DHT22;56075;51.264;7.150;2023-03-29T14:59:40;15.80;99.90
20833;DHT22;56075;51.264;7.150;2023-03-29T15:02:29;15.90;99.90
20833;DHT22;56075;51.264;7.150;2023-03-29T15:05:05;16.40;99.90
20833;DHT22;56075;51.264;7.150;2023-03-29T15:07:37;16.40;99.90
20833;DHT22;56075;51.264;7.150;2023-03-29T15:10:16;16.90;99.90
20833;DHT22;56075;51.264;7.150;2023-03-29T15:12:49;16.00;99.90
20833;DHT22;56075;51.264;7.150;2023-03-29T15:15:22;16.00;99.90
20833;DHT22;56075;51.264;7.150;2023-03-29T15:17:54;17.80;99.90
20833;DHT22;56075;51.264;7.150;2023-03-29T15:20:31;17.10;99.90
20833;DHT22;56075;51.264;7.150;2023-03-29T15:23:07;16.20;99.90
20833;DHT22;56075;51.264;7.150;2023-03-29T15:28:30;16.00;99.90
20833;DHT22;56075;51.264;7.150;2023-03-29T15:31:10;16.00;99.90
20833;DHT22;56075;51.264;7.150;2023-03-29T15:33:41;17.60;99.90
20833;DHT22;56075;51.264;7.150;2023-03-29T15:36:13;16.10;99.90
20833;DHT22;56075;51.264;7.150;2023-03-29T15:38:47;17.20;99.90
20833;DHT22;56075;51.264;7.150;2023-03-29T15:41:19;17.40;99.90
20833;DHT22;56075;51.264;7.150;2023-03-29T15:43:50;17.00;99.90
20833;DHT22;56075;51.264;7.150;2023-03-29T15:46:22;17.40;99.90
20833;DHT22;56075;51.264;7.150;2023-03-29T15:48:53;17.80;99.90
20833;DHT22;56075;51.264;7.150;2023-03-29T15:51:24;18.00;99.90
20833;DHT22;56075;51.264;7.150;2023-03-29T15:53:55;17.60;99.90
20833;DHT22;56075;51.264;7.150;2023-03-29T15:56:26;15.90;99.90
20833;DHT22;56075;51.264;7.150;2023-03-29T15:58:57;15.80;99.90
20833;DHT22;56075;51.264;7.150;2023-03-29T16:01:36;18.00;99.90
20833;DHT22;56075;51.264;7.150;2023-03-29T16:04:17;17.10;99.90
20833;DHT22;56075;51.264;7.150;2023-03-29T16:06:51;15.70;99.90
20833;DHT22;56075;51.264;7.150;2023-03-29T16:09:25;15.50;99.90
20833;DHT22;56075;51.264;7.150;2023-03-29T16:11:57;15.70;99.90
20833;DHT22;56075;51.264;7.150;2023-03-29T16:14:30;17.50;99.90
20833;DHT22;56075;51.264;7.150;2023-03-29T16:17:01;15.80;99.90
20833;DHT22;56075;51.264;7.150;2023-03-29T16:19:33;15.60;99.90
20833;DHT22;56075;51.264;7.150;2023-03-29T16:22:04;15.50;99.90
20833;DHT22;56075;51.264;7.150;2023-03-29T16:24:37;15.70;99.90
20833;DHT22;56075;51.264;7.150;2023-03-29T16:27:08;15.50;99.90
20833;DHT22;56075;51.264;7.150;2023-03-29T16:29:39;16.60;99.90
20833;DHT22;56075;51.264;7.150;2023-03-29T16:32:10;15.70;99.90
20833;DHT22;56075;51.264;7.150;2023-03-29T16:34:41;15.30;99.90
20833;DHT22;56075;51.264;7.150;2023-03-29T16:37:13;15.50;99.90
20833;DHT22;56075;51.264;7.150;2023-03-29T16:39:44;16.20;99.90
20833;DHT22;56075;51.264;7.150;2023-03-29T16:42:16;15.20;99.90
20833;DHT22;56075;51.264;7.150;2023-03-29T16:44:47;15.20;99.90
20833;DHT22;56075;51.264;7.150;2023-03-29T16:47:18;16.10;99.90
20833;DHT22;56075;51.264;7.150;2023-03-29T16:49:49;15.30;99.90
20833;DHT22;56075;51.264;7.150;2023-03-29T16:52:21;15.10;99.90
20833;DHT22;56075;51.264;7.150;2023-03-29T16:54:53;16.60;99.90
20833;DHT22;56075;51.264;7.150;2023-03-29T16:57:24;15.50;99.90
20833;DHT22;56075;51.264;7.150;2023-03-29T16:59:56;15.10;99.90
20833;DHT22;56075;51.264;7.150;2023-03-29T17:02:27;17.10;99.90
20833;DHT22;56075;51.264;7.150;2023-03-29T17:04:58;15.10;99.90
20833;DHT22;56075;51.264;7.150;2023-03-29T17:07:29;15.60;99.90
20833;DHT22;56075;51.264;7.150;2023-03-29T17:10:01;15.20;99.90
20833;DHT22;56075;51.264;7.150;2023-03-29T17:12:35;15.90;99.90
20833;DHT22;56075;51.264;7.150;2023-03-29T17:15:06;15.20;99.90
20833;DHT22;56075;51.264;7.150;2023-03-29T17:17:38;15.20;99.90
20833;DHT22;56075;51.264;7.150;2023-03-29T17:20:09;15.10;99.90
20833;DHT22;56075;51.264;7.150;2023-03-29T17:22:42;15.30;99.90
20833;DHT22;56075;51.264;7.150;2023-03-29T17:25:14;17.10;99.90
20833;DHT22;56075;51.264;7.150;2023-03-29T17:27:45;15.20;99.90
20833;DHT22;56075;51.264;7.150;2023-03-29T17:30:17;15.10;99.90
20833;DHT22;56075;51.264;7.150;2023-03-29T17:32:48;15.20;99.90
20833;DHT22;56075;51.264;7.150;2023-03-29T17:35:19;15.10;99.90
20833;DHT22;56075;51.264;7.150;2023-03-29T17:37:51;15.10;99.90
20833;DHT22;56075;51.264;7.150;2023-03-29T17:40:22;15.20;99.90
20833;DHT22;56075;51.264;7.150;2023-03-29T17:42:53;16.60;99.90
20833;DHT22;56075;51.264;7.150;2023-03-29T17:45:25;17.00;99.90
20833;DHT22;56075;51.264;7.150;2023-03-29T17:47:56;15.10;99.90
20833;DHT22;56075;51.264;7.150;2023-03-29T17:50:27;17.10;99.90
20833;DHT22;56075;51.264;7.150;2023-03-29T17:52:58;15.10;99.90
20833;DHT22;56075;51.264;7.150;2023-03-29T17:55:29;15.10;99.90
20833;DHT22;56075;51.264;7.150;2023-03-29T17:58:00;16.90;99.90
20833;DHT22;56075;51.264;7.150;2023-03-29T18:00:32;15.00;99.90
20833;DHT22;56075;51.264;7.150;2023-03-29T18:03:03;15.40;99.90
20833;DHT22;56075;51.264;7.150;2023-03-29T18:05:34;15.20;99.90
20833;DHT22;56075;51.264;7.150;2023-03-29T18:08:05;15.60;99.90
20833;DHT22;56075;51.264;7.150;2023-03-29T18:10:38;14.90;99.90
20833;DHT22;56075;51.264;7.150;2023-03-29T18:13:09;14.90;99.90
20833;DHT22;56075;51.264;7.150;2023-03-29T18:15:43;17.10;99.90
20833;DHT22;56075;51.264;7.150;2023-03-29T18:18:15;14.90;99.90
20833;DHT22;56075;51.264;7.150;2023-03-29T18:20:46;16.20;99.90
20833;DHT22;56075;51.264;7.150;2023-03-29T18:23:17;14.90;99.90
20833;DHT22;56075;51.264;7.150;2023-03-29T18:25:48;14.90;99.90
20833;DHT22;56075;51.264;7.150;2023-03-29T18:28:19;14.90;99.90
20833;DHT22;56075;51.264;7.150;2023-03-29T18:30:50;14.50;99.90
20833;DHT22;56075;51.264;7.150;2023-03-29T18:33:22;14.90;99.90
20833;DHT22;56075;51.264;7.150;2023-03-29T18:35:53;14.60;99.90
20833;DHT22;56075;51.264;7.150;2023-03-29T18:38:24;17.30;99.90
20833;DHT22;56075;51.264;7.150;2023-03-29T18:40:56;16.10;99.90
20833;DHT22;56075;51.264;7.150;2023-03-29T18:43:28;14.70;99.90
20833;DHT22;56075;51.264;7.150;2023-03-29T18:45:59;14.70;99.90
20833;DHT22;56075;51.264;7.150;2023-03-29T18:48:30;14.70;99.90
20833;DHT22;56075;51.264;7.150;2023-03-29T18:51:09;14.60;99.90
20833;DHT22;56075;51.264;7.150;2023-03-29T18:53:41;14.70;99.90
20833;DHT22;56075;51.264;7.150;2023-03-29T18:56:14;14.60;99.90
20833;DHT22;56075;51.264;7.150;2023-03-29T18:58:46;14.70;99.90
20833;DHT22;56075;51.264;7.150;2023-03-29T19:01:17;14.50;99.90
20833;DHT22;56075;51.264;7.150;2023-03-29T19:03:48;14.70;99.90
20833;DHT22;56075;51.264;7.150;2023-03-29T19:06:19;15.70;99.90
20833;DHT22;56075;51.264;7.150;2023-03-29T19:08:50;14.60;99.90
20833;DHT22;56075;51.264;7.150;2023-03-29T19:11:23;16.40;99.90
20833;DHT22;56075;51.264;7.150;2023-03-29T19:13:55;16.90;99.90
20833;DHT22;56075;51.264;7.150;2023-03-29T19:16:26;14.50;99.90
20833;DHT22;56075;51.264;7.150;2023-03-29T19:18:57;14.60;99.90
20833;DHT22;56075;51.264;7.150;2023-03-29T19:21:28;14.70;99.90
20833;DHT22;56075;51.264;7.150;2023-03-29T19:24:01;14.40;99.90
20833;DHT22;56075;51.264;7.150;2023-03-29T19:26:34;14.60;99.90
20833;DHT22;56075;51.264;7.150;2023-03-29T19:29:06;14.50;99.90
20833;DHT22;56075;51.264;7.150;2023-03-29T19:31:37;15.30;99.90
20833;DHT22;56075;51.264;7.150;2023-03-29T19:34:08;15.50;99.90
20833;DHT22;56075;51.264;7.150;2023-03-29T19:36:40;14.40;99.90
20833;DHT22;56075;51.264;7.150;2023-03-29T19:39:12;16.10;99.90
20833;DHT22;56075;51.264;7.150;2023-03-29T19:41:43;14.50;99.90
20833;DHT22;56075;51.264;7.150;2023-03-29T19:44:14;14.40;99.90
20833;DHT22;56075;51.264;7.150;2023-03-29T19:46:45;14.30;99.90
20833;DHT22;56075;51.264;7.150;2023-03-29T19:49:16;14.30;99.90
20833;DHT22;56075;51.264;7.150;2023-03-29T19:51:47;14.10;99.90
20833;DHT22;56075;51.264;7.150;2023-03-29T19:54:19;14.80;99.90
20833;DHT22;56075;51.264;7.150;2023-03-29T19:56:51;14.30;99.90
20833;DHT22;56075;51.264;7.150;2023-03-29T19:59:23;14.20;99.90
20833;DHT22;56075;51.264;7.150;2023-03-29T20:01:54;14.10;99.90
20833;DHT22;56075;51.264;7.150;2023-03-29T20:04:26;14.90;99.90
20833;DHT22;56075;51.264;7.150;2023-03-29T20:06:58;14.20;99.90
20833;DHT22;56075;51.264;7.150;2023-03-29T20:09:30;14.00;99.90
20833;DHT22;56075;51.264;7.150;2023-03-29T20:12:03;14.20;99.90
20833;DHT22;56075;51.264;7.150;2023-03-29T20:14:34;14.10;99.90
20833;DHT22;56075;51.264;7.150;2023-03-29T20:17:09;14.10;99.90
20833;DHT22;56075;51.264;7.150;2023-03-29T20:19:41;15.60;99.90
20833;DHT22;56075;51.264;7.150;2023-03-29T20:22:13;14.00;99.90
20833;DHT22;56075;51.264;7.150;2023-03-29T20:24:45;14.00;99.90
20833;DHT22;56075;51.264;7.150;2023-03-29T20:27:16;13.80;99.90
20833;DHT22;56075;51.264;7.150;2023-03-29T20:29:47;14.00;99.90
20833;DHT22;56075;51.264;7.150;2023-03-29T20:32:18;14.10;99.90
20833;DHT22;56075;51.264;7.150;2023-03-29T20:34:49;14.00;99.90
20833;DHT22;56075;51.264;7.150;2023-03-29T20:37:21;13.90;99.90
20833;DHT22;56075;51.264;7.150;2023-03-29T20:39:52;15.10;99.90
20833;DHT22;56075;51.264;7.150;2023-03-29T20:42:26;14.00;99.90
20833;DHT22;56075;51.264;7.150;2023-03-29T20:44:59;13.90;99.90
20833;DHT22;56075;51.264;7.150;2023-03-29T20:47:31;15.00;99.90
20833;DHT22;56075;51.264;7.150;2023-03-29T20:50:02;13.90;99.90
20833;DHT22;56075;51.264;7.150;2023-03-29T20:52:34;14.00;99.90
20833;DHT22;56075;51.264;7.150;2023-03-29T20:55:08;14.60;99.90
20833;DHT22;56075;51.264;7.150;2023-03-29T20:57:39;13.90;99.90
20833;DHT22;56075;51.264;7.150;2023-03-29T21:00:12;13.90;99.90
20833;DHT22;56075;51.264;7.150;2023-03-29T21:02:43;13.90;99.90
20833;DHT22;56075;51.264;7.150;2023-03-29T21:05:14;13.80;99.90
20833;DHT22;56075;51.264;7.150;2023-03-29T21:07:46;13.70;99.90
20833;DHT22;56075;51.264;7.150;2023-03-29T21:10:17;14.40;99.90
20833;DHT22;56075;51.264;7.150;2023-03-29T21:12:52;13.80;99.90
20833;DHT22;56075;51.264;7.150;2023-03-29T21:15:30;13.90;99.90
20833;DHT22;56075;51.264;7.150;2023-03-29T21:18:01;13.70;99.90
20833;DHT22;56075;51.264;7.150;2023-03-29T21:20:35;13.80;99.90
20833;DHT22;56075;51.264;7.150;2023-03-29T21:23:07;13.70;99.90
20833;DHT22;56075;51.264;7.150;2023-03-29T21:25:38;13.90;99.90
20833;DHT22;56075;51.264;7.150;2023-03-29T21:28:09;15.70;99.90
20833;DHT22;56075;51.264;7.150;2023-03-29T21:30:43;15.50;99.90
20833;DHT22;56075;51.264;7.150;2023-03-29T21:33:14;14.10;99.90
20833;DHT22;56075;51.264;7.150;2023-03-29T21:35:48;13.60;99.90
20833;DHT22;56075;51.264;7.150;2023-03-29T21:38:20;13.70;99.90
20833;DHT22;56075;51.264;7.150;2023-03-29T21:40:51;13.70;99.90
20833;DHT22;56075;51.264;7.150;2023-03-29T21:43:22;13.60;99.90
20833;DHT22;56075;51.264;7.150;2023-03-29T21:45:54;13.90;99.90
20833;DHT22;56075;51.264;7.150;2023-03-29T21:48:27;14.60;99.90
20833;DHT22;56075;51.264;7.150;2023-03-29T21:50:59;13.90;99.90
20833;DHT22;56075;51.264;7.150;2023-03-29T21:53:30;13.80;99.90
20833;DHT22;56075;51.264;7.150;2023-03-29T21:56:01;13.70;99.90
20833;DHT22;56075;51.264;7.150;2023-03-29T21:58:33;13.60;99.90
20833;DHT22;56075;51.264;7.150;2023-03-29T22:01:05;13.70;99.90
20833;DHT22;56075;51.264;7.150;2023-03-29T22:03:39;13.60;99.90
20833;DHT22;56075;51.264;7.150;2023-03-29T22:06:12;13.70;99.90
20833;DHT22;56075;51.264;7.150;2023-03-29T22:08:44;13.70;99.90
20833;DHT22;56075;51.264;7.150;2023-03-29T22:11:16;13.60;99.90
20833;DHT22;56075;51.264;7.150;2023-03-29T22:13:50;13.80;99.90
20833;DHT22;56075;51.264;7.150;2023-03-29T22:16:22;13.60;99.90
20833;DHT22;56075;51.264;7.150;2023-03-29T22:18:55;13.80;99.90
20833;DHT22;56075;51.264;7.150;2023-03-29T22:21:28;13.40;99.90
20833;DHT22;56075;51.264;7.150;2023-03-29T22:24:03;13.70;99.90
20833;DHT22;56075;51.264;7.150;2023-03-29T22:26:35;13.50;99.90
20833;DHT22;56075;51.264;7.150;2023-03-29T22:29:06;13.60;99.90
20833;DHT22;56075;51.264;7.150;2023-03-29T22:31:38;13.30;99.90
20833;DHT22;56075;51.264;7.150;2023-03-29T22:34:09;13.70;99.90
20833;DHT22;56075;51.264;7.150;2023-03-29T22:36:41;13.80;99.90
20833;DHT22;56075;51.264;7.150;2023-03-29T22:39:12;13.80;99.90
20833;DHT22;56075;51.264;7.150;2023-03-29T22:41:43;13.60;99.90
20833;DHT22;56075;51.264;7.150;2023-03-29T22:44:15;13.90;99.90
20833;DHT22;56075;51.264;7.150;2023-03-29T22:46:47;13.80;99.90
20833;DHT22;56075;51.264;7.150;2023-03-29T22:49:18;13.70;99.90
20833;DHT22;56075;51.264;7.150;2023-03-29T22:51:49;13.70;99.90
20833;DHT22;56075;51.264;7.150;2023-03-29T22:54:21;13.70;99.90
20833;DHT22;56075;51.264;7.150;2023-03-29T22:56:52;13.90;99.90
20833;DHT22;56075;51.264;7.150;2023-03-29T22:59:24;13.70;99.90
20833;DHT22;56075;51.264;7.150;2023-03-29T23:01:55;13.60;99.90
20833;DHT22;56075;51.264;7.150;2023-03-29T23:04:27;15.60;99.90
20833;DHT22;56075;51.264;7.150;2023-03-29T23:06:58;13.60;99.90
20833;DHT22;56075;51.264;7.150;2023-03-29T23:09:30;13.80;99.90
20833;DHT22;56075;51.264;7.150;2023-03-29T23:12:01;13.50;99.90
20833;DHT22;56075;51.264;7.150;2023-03-29T23:14:32;13.80;99.90
20833;DHT22;56075;51.264;7.150;2023-03-29T23:17:04;15.40;99.90
20833;DHT22;56075;51.264;7.150;2023-03-29T23:19:36;13.70;99.90
20833;DHT22;56075;51.264;7.150;2023-03-29T23:22:08;13.90;99.90
20833;DHT22;56075;51.264;7.150;2023-03-29T23:24:39;14.00;99.90
20833;DHT22;56075;51.264;7.150;2023-03-29T23:27:13;13.90;99.90
20833;DHT22;56075;51.264;7.150;2023-03-29T23:29:45;13.90;99.90
20833;DHT22;56075;51.264;7.150;2023-03-29T23:32:17;14.00;99.90
20833;DHT22;56075;51.264;7.150;2023-03-29T23:34:49;14.00;99.90
20833;DHT22;56075;51.264;7.150;2023-03-29T23:37:20;14.10;99.90
20833;DHT22;56075;51.264;7.150;2023-03-29T23:39:52;15.90;99.90
20833;DHT22;56075;51.264;7.150;2023-03-29T23:42:23;14.10;99.90
20833;DHT22;56075;51.264;7.150;2023-03-29T23:44:54;14.10;99.90
20833;DHT22;56075;51.264;7.150;2023-03-29T23:47:26;14.20;99.90
20833;DHT22;56075;51.264;7.150;2023-03-29T23:49:57;14.40;99.90
20833;DHT22;56075;51.264;7.150;2023-03-29T23:52:32;14.10;99.90
20833;DHT22;56075;51.264;7.150;2023-03-29T23:55:04;14.00;99.90
20833;DHT22;56075;51.264;7.150;2023-03-29T23:57:38;14.00;99.90
